createdAt,value
2023-05-15T00:00:35.013Z,10.55
2023-05-15T00:03:02.537Z,10.77
2023-05-15T00:05:29.354Z,10.00
2023-05-15T00:07:56.150Z,10.30
2023-05-15T00:10:22.877Z,10.52
2023-05-15T00:12:50.298Z,10.35
2023-05-15T00:15:17.223Z,10.27
2023-05-15T00:17:43.851Z,10.05
2023-05-15T00:20:11.352Z,9.60
2023-05-15T00:22:38.208Z,10.43
2023-05-15T00:25:05.210Z,9.50
2023-05-15T00:27:31.843Z,9.18
2023-05-15T00:29:58.523Z,9.32
2023-05-15T00:32:25.182Z,9.05
2023-05-15T00:34:51.945Z,9.68
2023-05-15T00:37:19.557Z,8.00
2023-05-15T00:39:46.232Z,8.52
2023-05-15T00:42:13.530Z,8.70
2023-05-15T00:44:41.498Z,8.35
2023-05-15T00:47:10.858Z,8.20
2023-05-15T00:49:38.773Z,9.10
2023-05-15T00:52:08.412Z,8.93
2023-05-15T00:54:35.414Z,8.20
2023-05-15T00:57:03.885Z,8.95
2023-05-15T00:59:31.873Z,8.60
2023-05-15T01:01:58.553Z,9.15
2023-05-15T01:04:25.585Z,9.32
2023-05-15T01:06:54.068Z,8.98
2023-05-15T01:09:23.692Z,8.77
2023-05-15T01:11:53.696Z,9.15
2023-05-15T01:14:20.487Z,8.95
2023-05-15T01:16:47.284Z,9.25
2023-05-15T01:19:14.490Z,8.65
2023-05-15T01:21:59.874Z,8.75
2023-05-15T01:24:55.783Z,7.97
2023-05-15T01:27:51.452Z,7.95
2023-05-15T01:30:30.153Z,8.65
2023-05-15T01:33:17.338Z,8.20
2023-05-15T01:36:08.082Z,8.02
2023-05-15T01:38:42.991Z,7.40
2023-05-15T01:41:11.798Z,7.70
2023-05-15T01:43:42.272Z,7.45
2023-05-15T01:46:11.565Z,7.70
2023-05-15T01:48:40.768Z,7.45
2023-05-15T01:51:10.278Z,7.20
2023-05-15T01:53:38.807Z,7.95
2023-05-15T01:56:08.230Z,7.05
2023-05-15T01:58:38.444Z,7.80
2023-05-15T02:01:06.081Z,7.80
2023-05-15T02:03:36.733Z,9.00
2023-05-15T02:06:05.044Z,8.32
2023-05-15T02:08:35.124Z,8.50
2023-05-15T02:11:03.384Z,8.05
2023-05-15T02:13:31.641Z,8.63
2023-05-15T02:15:58.540Z,8.57
2023-05-15T02:18:25.480Z,8.60
2023-05-15T02:20:52.145Z,9.70
2023-05-15T02:23:20.706Z,9.15
2023-05-15T02:26:07.954Z,9.88
2023-05-15T02:28:43.352Z,10.93
2023-05-15T02:31:23.768Z,9.70
2023-05-15T02:34:13.139Z,10.60
2023-05-15T02:36:44.621Z,9.63
2023-05-15T02:39:13.424Z,8.90
2023-05-15T02:41:40.497Z,8.35
2023-05-15T02:44:08.809Z,9.25
2023-05-15T02:46:37.323Z,9.50
2023-05-15T02:49:04.147Z,9.18
2023-05-15T02:51:31.196Z,9.05
2023-05-15T02:54:01.052Z,9.65
2023-05-15T02:58:54.524Z,10.07
2023-05-15T03:01:21.372Z,9.73
2023-05-15T03:03:48.290Z,9.75
2023-05-15T03:06:14.995Z,10.20
2023-05-15T03:08:41.955Z,10.13
2023-05-15T03:11:08.522Z,10.48
2023-05-15T03:13:35.178Z,9.90
2023-05-15T03:16:01.868Z,9.95
2023-05-15T03:18:28.546Z,11.15
2023-05-15T03:20:55.191Z,13.25
2023-05-15T03:23:21.876Z,11.02
2023-05-15T03:25:48.565Z,10.75
2023-05-15T03:28:15.236Z,11.00
2023-05-15T03:30:44.736Z,11.27
2023-05-15T03:33:11.392Z,10.85
2023-05-15T03:35:38.143Z,11.18
2023-05-15T03:38:04.730Z,10.88
2023-05-15T03:40:31.317Z,10.68
2023-05-15T03:42:58.470Z,10.68
2023-05-15T03:45:25.218Z,10.63
2023-05-15T03:47:52.026Z,10.18
2023-05-15T03:50:19.863Z,9.95
2023-05-15T03:52:47.165Z,10.80
2023-05-15T03:55:13.846Z,11.38
2023-05-15T03:57:41.721Z,11.05
2023-05-15T04:00:12.459Z,10.68
2023-05-15T04:02:40.373Z,10.77
2023-05-15T04:05:07.938Z,11.10
2023-05-15T04:07:37.950Z,11.52
2023-05-15T04:10:05.087Z,11.57
2023-05-15T04:12:34.231Z,12.38
2023-05-15T04:15:24.480Z,11.80
2023-05-15T04:17:53.678Z,12.20
2023-05-15T04:20:23.129Z,12.27
2023-05-15T04:22:50.757Z,13.20
2023-05-15T04:25:18.209Z,13.40
2023-05-15T04:27:45.054Z,13.27
2023-05-15T04:30:14.100Z,13.80
2023-05-15T04:32:41.143Z,13.57
2023-05-15T04:35:10.549Z,12.63
2023-05-15T04:37:38.549Z,13.40
2023-05-15T04:40:08.830Z,12.75
2023-05-15T04:42:39.544Z,14.15
2023-05-15T04:45:07.350Z,16.38
2023-05-15T04:47:34.316Z,16.95
2023-05-15T04:50:03.109Z,18.65
2023-05-15T04:52:30.001Z,17.95
2023-05-15T04:54:56.615Z,18.13
2023-05-15T04:57:25.862Z,17.92
2023-05-15T04:59:52.802Z,18.00
2023-05-15T05:02:23.513Z,18.25
2023-05-15T05:04:50.530Z,16.25
2023-05-15T05:07:17.311Z,15.52
2023-05-15T05:09:44.500Z,16.48
2023-05-15T05:12:11.276Z,17.60
2023-05-15T05:14:40.501Z,17.58
2023-05-15T05:17:07.240Z,17.15
2023-05-15T05:19:33.936Z,16.83
2023-05-15T05:22:04.680Z,16.90
2023-05-15T05:24:37.724Z,16.23
2023-05-15T05:27:05.209Z,16.05
2023-05-15T05:29:32.637Z,15.40
2023-05-15T05:31:59.371Z,14.63
2023-05-15T05:34:26.030Z,14.00
2023-05-15T05:36:52.682Z,14.50
2023-05-15T05:39:19.452Z,14.77
2023-05-15T05:41:46.058Z,13.73
2023-05-15T05:44:12.881Z,13.32
2023-05-15T05:46:41.167Z,13.52
2023-05-15T05:49:07.770Z,12.30
2023-05-15T05:51:37.279Z,11.50
2023-05-15T05:54:04.294Z,9.45
2023-05-15T05:56:31.478Z,9.07
2023-05-15T05:58:59.652Z,8.45
2023-05-15T06:01:27.009Z,7.53
2023-05-15T06:03:53.850Z,7.15
2023-05-15T06:06:20.524Z,6.85
2023-05-15T06:08:47.076Z,5.70
2023-05-15T06:11:13.790Z,5.70
2023-05-15T06:13:41.088Z,5.28
2023-05-15T06:16:07.834Z,5.13
2023-05-15T06:18:34.504Z,5.35
2023-05-15T06:21:04.048Z,4.40
2023-05-15T06:23:30.718Z,4.55
2023-05-15T06:25:57.445Z,4.45
2023-05-15T06:28:27.354Z,4.50
2023-05-15T06:30:53.988Z,4.30
2023-05-15T06:33:23.735Z,3.78
2023-05-15T06:38:17.752Z,3.40
2023-05-15T06:40:44.401Z,3.38
2023-05-15T06:43:11.164Z,3.30
2023-05-15T06:45:37.809Z,3.42
2023-05-15T06:48:07.221Z,3.25
2023-05-15T06:50:33.857Z,3.10
2023-05-15T06:53:01.303Z,3.72
2023-05-15T06:55:28.103Z,3.10
2023-05-15T06:57:54.862Z,4.45
2023-05-15T07:00:21.599Z,4.50
2023-05-15T07:02:48.308Z,4.07
2023-05-15T07:05:15.212Z,5.88
2023-05-15T07:07:42.809Z,6.70
2023-05-15T07:10:09.786Z,6.13
2023-05-15T07:12:36.554Z,4.50
2023-05-15T07:15:03.695Z,4.82
2023-05-15T07:17:33.615Z,4.40
2023-05-15T07:20:00.325Z,4.55
2023-05-15T07:22:28.060Z,3.83
2023-05-15T07:24:54.947Z,3.20
2023-05-15T07:27:21.538Z,3.38
2023-05-15T07:29:48.144Z,3.35
2023-05-15T07:32:14.825Z,3.50
2023-05-15T07:34:42.754Z,3.72
2023-05-15T07:37:09.943Z,3.80
2023-05-15T07:39:36.765Z,3.58
2023-05-15T07:42:03.479Z,3.30
2023-05-15T07:44:30.257Z,4.93
2023-05-15T07:46:57.011Z,4.38
2023-05-15T07:49:23.613Z,4.65
2023-05-15T07:51:50.392Z,4.22
2023-05-15T07:54:17.011Z,3.80
2023-05-15T07:56:43.998Z,4.00
2023-05-15T07:59:10.793Z,4.05
2023-05-15T08:01:37.437Z,4.03
2023-05-15T08:04:08.473Z,3.85
2023-05-15T08:06:38.190Z,4.03
2023-05-15T08:11:33.782Z,3.65
2023-05-15T08:14:00.696Z,3.92
2023-05-15T08:16:30.086Z,3.80
2023-05-15T08:19:01.605Z,3.80
2023-05-15T08:21:28.401Z,3.95
2023-05-15T08:23:55.048Z,4.22
2023-05-15T08:26:21.832Z,4.07
2023-05-15T08:28:48.553Z,4.30
2023-05-15T08:31:15.231Z,4.13
2023-05-15T08:33:41.942Z,4.50
2023-05-15T08:36:08.928Z,4.53
2023-05-15T08:38:35.644Z,4.43
2023-05-15T08:41:36.320Z,4.00
2023-05-15T08:44:09.405Z,3.80
2023-05-15T08:46:36.569Z,3.53
2023-05-15T08:49:13.101Z,3.70
2023-05-15T08:51:39.919Z,2.90
2023-05-15T08:54:10.267Z,2.72
2023-05-15T08:56:39.493Z,2.78
2023-05-15T08:59:06.432Z,2.70
2023-05-15T09:01:34.232Z,2.97
2023-05-15T09:04:01.283Z,3.13
2023-05-15T09:06:28.539Z,2.95
2023-05-15T09:08:57.680Z,2.70
2023-05-15T09:11:25.960Z,2.90
2023-05-15T09:13:53.613Z,2.90
2023-05-15T09:16:21.602Z,2.80
2023-05-15T09:18:50.010Z,2.85
2023-05-15T09:21:26.780Z,2.42
2023-05-15T09:24:17.199Z,2.30
2023-05-15T09:26:46.903Z,2.50
2023-05-15T09:31:48.775Z,2.20
2023-05-15T09:34:18.393Z,2.30
2023-05-15T09:36:45.123Z,2.40
2023-05-15T09:39:12.312Z,2.40
2023-05-15T09:41:43.201Z,2.78
2023-05-15T09:44:24.869Z,2.65
2023-05-15T09:46:52.056Z,2.92
2023-05-15T09:49:19.900Z,2.70
2023-05-15T09:51:48.754Z,2.90
2023-05-15T09:54:17.349Z,2.55
2023-05-15T09:56:47.742Z,2.60
2023-05-15T09:59:16.410Z,2.22
2023-05-15T10:01:47.670Z,2.10
2023-05-15T10:04:14.872Z,2.08
2023-05-15T10:06:48.477Z,2.45
2023-05-15T10:09:15.874Z,2.17
2023-05-15T10:11:44.136Z,2.00
2023-05-15T10:14:13.684Z,2.33
2023-05-15T10:16:41.209Z,2.20
2023-05-15T10:19:10.700Z,2.40
2023-05-15T10:21:41.693Z,2.40
2023-05-15T10:24:08.812Z,2.30
2023-05-15T10:26:40.340Z,2.30
2023-05-15T10:29:18.868Z,2.35
2023-05-15T10:31:48.851Z,2.50
2023-05-15T10:34:16.435Z,2.50
2023-05-15T10:36:43.611Z,2.20
2023-05-15T10:39:10.579Z,2.45
2023-05-15T10:41:39.804Z,2.40
2023-05-15T10:44:07.239Z,2.45
2023-05-15T10:46:36.199Z,2.30
2023-05-15T10:49:03.279Z,2.47
2023-05-15T10:51:32.914Z,3.15
2023-05-15T10:54:03.691Z,3.33
2023-05-15T10:56:32.217Z,3.80
2023-05-15T10:59:06.403Z,4.38
2023-05-15T11:01:35.459Z,4.20
2023-05-15T11:04:07.439Z,3.88
2023-05-15T11:06:35.001Z,4.10
2023-05-15T11:09:27.638Z,3.92
2023-05-15T11:11:57.403Z,4.55
2023-05-15T11:14:25.612Z,4.13
2023-05-15T11:16:55.062Z,4.30
2023-05-15T11:19:32.425Z,4.15
2023-05-15T11:22:00.741Z,4.20
2023-05-15T11:24:32.104Z,4.20
2023-05-15T11:27:03.750Z,3.97
2023-05-15T11:29:31.610Z,4.18
2023-05-15T11:31:58.626Z,4.22
2023-05-15T11:34:35.035Z,4.00
2023-05-15T11:37:04.555Z,4.60
2023-05-15T11:39:31.335Z,4.07
2023-05-15T11:42:11.351Z,3.65
2023-05-15T11:44:38.215Z,4.10
2023-05-15T11:47:05.161Z,4.30
2023-05-15T11:49:31.879Z,4.13
2023-05-15T11:52:00.687Z,4.20
2023-05-15T11:54:28.026Z,4.17
2023-05-15T11:56:57.527Z,4.03
2023-05-15T11:59:27.046Z,3.90
2023-05-15T12:01:53.676Z,4.05
2023-05-15T12:04:20.823Z,3.85
2023-05-15T12:06:49.607Z,4.00
2023-05-15T12:09:21.778Z,3.95
2023-05-15T12:11:53.030Z,4.07
2023-05-15T12:14:35.693Z,3.90
2023-05-15T12:17:04.304Z,3.85
2023-05-15T12:19:31.547Z,4.00
2023-05-15T12:21:58.202Z,3.47
2023-05-15T12:24:28.960Z,3.80
2023-05-15T12:26:57.469Z,3.65
2023-05-15T12:29:25.787Z,3.17
2023-05-15T12:31:53.988Z,4.03
2023-05-15T12:34:21.855Z,3.13
2023-05-15T12:36:48.501Z,3.20
2023-05-15T12:39:15.161Z,3.13
2023-05-15T12:41:41.902Z,3.00
2023-05-15T12:44:18.509Z,3.17
2023-05-15T12:46:46.437Z,3.00
2023-05-15T12:49:13.310Z,3.10
2023-05-15T12:51:43.938Z,2.90
2023-05-15T12:54:20.678Z,2.85
2023-05-15T12:56:48.615Z,3.00
2023-05-15T12:59:15.387Z,2.55
2023-05-15T13:01:45.137Z,2.80
2023-05-15T13:04:11.931Z,2.50
2023-05-15T13:06:46.263Z,2.28
2023-05-15T13:09:13.929Z,3.13
2023-05-15T13:11:45.095Z,2.60
2023-05-15T13:14:17.376Z,2.35
2023-05-15T13:16:47.051Z,2.50
2023-05-15T13:19:14.265Z,2.50
2023-05-15T13:21:41.198Z,2.20
2023-05-15T13:24:11.094Z,2.40
2023-05-15T13:26:37.752Z,2.50
2023-05-15T13:29:04.788Z,2.45
2023-05-15T13:31:32.214Z,2.50
2023-05-15T13:33:58.893Z,2.17
2023-05-15T13:36:25.589Z,2.58
2023-05-15T13:38:52.312Z,2.67
2023-05-15T13:41:19.120Z,2.20
2023-05-15T13:43:47.874Z,2.30
2023-05-15T13:46:14.576Z,2.15
2023-05-15T13:48:41.247Z,2.35
2023-05-15T13:51:07.974Z,2.10
2023-05-15T13:53:34.559Z,2.15
2023-05-15T13:56:03.637Z,2.17
2023-05-15T13:58:30.573Z,2.35
2023-05-15T14:00:57.314Z,2.00
2023-05-15T14:06:14.204Z,2.50
2023-05-15T14:08:40.813Z,2.55
2023-05-15T14:11:07.486Z,2.85
2023-05-15T14:13:34.361Z,2.70
2023-05-15T14:16:01.049Z,2.72
2023-05-15T14:18:28.632Z,2.80
2023-05-15T14:20:57.339Z,3.22
2023-05-15T14:23:24.078Z,3.03
2023-05-15T14:25:50.756Z,2.83
2023-05-15T14:28:17.393Z,3.17
2023-05-15T14:30:44.021Z,2.88
2023-05-15T14:33:10.788Z,3.25
2023-05-15T14:35:38.524Z,3.03
2023-05-15T14:38:05.353Z,3.00
2023-05-15T14:40:31.988Z,3.05
2023-05-15T14:42:58.604Z,3.33
2023-05-15T14:45:25.579Z,3.28
2023-05-15T14:47:52.466Z,5.80
2023-05-15T14:50:19.213Z,6.93
2023-05-15T14:52:46.486Z,6.95
2023-05-15T14:55:13.198Z,5.88
2023-05-15T14:57:39.863Z,6.10
2023-05-15T15:00:07.262Z,5.70
2023-05-15T15:02:34.208Z,4.57
2023-05-15T15:05:01.136Z,4.97
2023-05-15T15:07:30.686Z,5.18
2023-05-15T15:09:58.339Z,4.35
2023-05-15T15:12:25.050Z,4.70
2023-05-15T15:14:51.678Z,5.65
2023-05-15T15:17:18.549Z,5.95
2023-05-15T15:19:45.205Z,4.47
2023-05-15T15:22:14.972Z,4.70
2023-05-15T15:27:11.272Z,4.38
2023-05-15T15:32:04.671Z,4.40
2023-05-15T15:34:31.438Z,3.88
2023-05-15T15:37:00.366Z,4.40
2023-05-15T15:39:26.959Z,4.77
2023-05-15T15:41:54.498Z,9.98
2023-05-15T15:44:21.175Z,6.00
2023-05-15T15:46:47.887Z,8.93
2023-05-15T15:49:16.646Z,30.38
2023-05-15T15:51:45.529Z,4.22
2023-05-15T15:54:12.156Z,4.30
2023-05-15T15:56:38.811Z,4.22
2023-05-15T15:59:05.635Z,4.00
2023-05-15T16:01:32.953Z,5.22
2023-05-15T16:03:59.691Z,12.38
2023-05-15T16:06:26.308Z,4.03
2023-05-15T16:08:53.037Z,5.88
2023-05-15T16:11:21.604Z,5.13
2023-05-15T16:13:48.275Z,5.63
2023-05-15T16:16:14.948Z,4.15
2023-05-15T16:18:42.056Z,4.22
2023-05-15T16:21:09.966Z,4.03
2023-05-15T16:23:38.033Z,2.90
2023-05-15T16:26:05.355Z,3.83
2023-05-15T16:28:32.221Z,7.30
2023-05-15T16:30:59.139Z,6.20
2023-05-15T16:33:25.989Z,4.55
2023-05-15T16:35:52.821Z,3.60
2023-05-15T16:38:19.945Z,3.83
2023-05-15T16:40:46.818Z,3.63
2023-05-15T16:43:14.056Z,17.30
2023-05-15T16:45:40.762Z,8.18
2023-05-15T16:48:07.870Z,5.63
2023-05-15T16:50:37.992Z,11.93
2023-05-15T16:53:05.156Z,3.55
2023-05-15T16:55:33.160Z,2.60
2023-05-15T16:57:59.905Z,2.47
2023-05-15T17:00:27.017Z,2.30
2023-05-15T17:02:54.609Z,2.72
2023-05-15T17:05:21.464Z,3.28
2023-05-15T17:07:48.075Z,3.88
2023-05-15T17:10:14.637Z,3.70
2023-05-15T17:12:41.495Z,3.75
2023-05-15T17:15:08.436Z,4.25
2023-05-15T17:17:35.104Z,5.13
2023-05-15T17:20:03.257Z,4.63
2023-05-15T17:22:30.127Z,3.47
2023-05-15T17:24:56.809Z,3.55
2023-05-15T17:27:24.556Z,2.92
2023-05-15T17:29:51.903Z,3.15
2023-05-15T17:32:19.162Z,2.80
2023-05-15T17:34:46.851Z,2.95
2023-05-15T17:37:13.969Z,2.90
2023-05-15T17:39:40.733Z,2.85
2023-05-15T17:42:07.464Z,3.00
2023-05-15T17:44:34.141Z,3.28
2023-05-15T17:47:00.989Z,3.15
2023-05-15T17:49:28.052Z,3.60
2023-05-15T17:51:54.722Z,4.05
2023-05-15T17:54:21.422Z,3.67
2023-05-15T17:56:49.272Z,3.60
2023-05-15T17:59:16.121Z,4.03
2023-05-15T18:01:42.876Z,3.40
2023-05-15T18:04:09.738Z,3.47
2023-05-15T18:06:36.734Z,3.58
2023-05-15T18:09:05.198Z,3.53
2023-05-15T18:11:31.930Z,3.33
2023-05-15T18:13:58.541Z,3.50
2023-05-15T18:16:25.145Z,3.60
2023-05-15T18:18:54.860Z,4.10
2023-05-15T18:21:21.580Z,5.00
2023-05-15T18:23:48.438Z,4.70
2023-05-15T18:26:15.067Z,6.18
2023-05-15T18:28:41.675Z,4.38
2023-05-15T18:31:08.500Z,4.55
2023-05-15T18:33:35.163Z,4.25
2023-05-15T18:36:01.784Z,5.03
2023-05-15T18:38:29.039Z,4.22
2023-05-15T18:40:55.621Z,3.60
2023-05-15T18:43:22.340Z,3.10
2023-05-15T18:45:49.022Z,3.17
2023-05-15T18:48:15.734Z,3.30
2023-05-15T18:50:42.713Z,3.33
2023-05-15T18:53:09.460Z,3.20
2023-05-15T18:55:36.129Z,3.40
2023-05-15T18:58:02.803Z,3.50
2023-05-15T19:00:38.130Z,3.65
2023-05-15T19:03:06.543Z,3.20
2023-05-15T19:05:34.258Z,3.58
2023-05-15T19:08:01.427Z,3.30
2023-05-15T19:10:29.635Z,3.40
2023-05-15T19:12:57.181Z,3.35
2023-05-15T19:15:25.136Z,4.07
2023-05-15T19:17:52.045Z,5.00
2023-05-15T19:20:19.064Z,4.43
2023-05-15T19:22:46.291Z,3.70
2023-05-15T19:25:13.104Z,3.53
2023-05-15T19:27:39.847Z,3.47
2023-05-15T19:30:07.201Z,3.42
2023-05-15T19:32:34.300Z,3.53
2023-05-15T19:35:01.930Z,3.85
2023-05-15T19:37:30.163Z,3.38
2023-05-15T19:39:57.209Z,3.33
2023-05-15T19:42:23.995Z,3.70
2023-05-15T19:44:50.675Z,3.53
2023-05-15T19:47:21.347Z,3.67
2023-05-15T19:49:48.167Z,3.70
2023-05-15T19:52:16.302Z,3.63
2023-05-15T19:54:42.913Z,3.20
2023-05-15T19:57:09.558Z,3.28
2023-05-15T19:59:36.158Z,3.40
2023-05-15T20:02:03.035Z,3.13
2023-05-15T20:04:29.904Z,3.28
2023-05-15T20:06:56.564Z,3.30
2023-05-15T20:09:23.159Z,3.20
2023-05-15T20:11:49.761Z,3.50
2023-05-15T20:14:16.652Z,3.40
2023-05-15T20:16:43.585Z,3.50
2023-05-15T20:19:11.212Z,3.40
2023-05-15T20:21:38.942Z,3.60
2023-05-15T20:24:06.114Z,3.33
2023-05-15T20:26:32.911Z,3.50
2023-05-15T20:28:59.604Z,3.50
2023-05-15T20:31:26.316Z,3.85
2023-05-15T20:33:53.057Z,3.95
2023-05-15T20:36:20.223Z,3.67
2023-05-15T20:38:46.894Z,4.47
2023-05-15T20:41:13.525Z,4.43
2023-05-15T20:43:40.136Z,4.85
2023-05-15T20:46:09.238Z,4.55
2023-05-15T20:48:36.476Z,4.72
2023-05-15T20:51:03.304Z,4.88
2023-05-15T20:53:29.993Z,5.05
2023-05-15T20:55:56.692Z,5.00
2023-05-15T20:58:23.320Z,5.20
2023-05-15T21:00:50.017Z,4.82
2023-05-15T21:03:16.740Z,5.20
2023-05-15T21:05:43.391Z,5.38
2023-05-15T21:08:09.986Z,5.20
2023-05-15T21:10:36.612Z,5.50
2023-05-15T21:13:03.587Z,5.85
2023-05-15T21:15:30.355Z,6.25
2023-05-15T21:17:59.143Z,6.50
2023-05-15T21:20:28.732Z,6.55
2023-05-15T21:22:55.534Z,5.65
2023-05-15T21:25:22.236Z,5.70
2023-05-15T21:27:51.945Z,5.60
2023-05-15T21:30:18.957Z,4.97
2023-05-15T21:32:45.745Z,5.18
2023-05-15T21:35:12.365Z,4.72
2023-05-15T21:37:39.066Z,4.70
2023-05-15T21:40:06.757Z,5.40
2023-05-15T21:42:33.373Z,4.70
2023-05-15T21:45:00.046Z,5.00
2023-05-15T21:47:26.702Z,4.57
2023-05-15T21:49:53.330Z,4.63
2023-05-15T21:52:19.987Z,4.97
2023-05-15T21:54:46.619Z,4.72
2023-05-15T21:57:13.286Z,4.82
2023-05-15T21:59:40.173Z,5.63
2023-05-15T22:02:07.503Z,4.53
2023-05-15T22:04:34.380Z,4.90
2023-05-15T22:07:01.024Z,5.35
2023-05-15T22:09:27.660Z,4.60
2023-05-15T22:11:54.255Z,4.40
2023-05-15T22:14:21.982Z,5.22
2023-05-15T22:16:48.688Z,5.80
2023-05-15T22:19:31.689Z,5.20
2023-05-15T22:22:00.911Z,5.20
2023-05-15T22:24:27.602Z,5.43
2023-05-15T22:26:54.997Z,5.70
2023-05-15T22:29:21.936Z,5.70
2023-05-15T22:31:50.678Z,5.88
2023-05-15T22:34:17.463Z,5.70
2023-05-15T22:36:44.077Z,6.13
2023-05-15T22:39:11.668Z,6.28
2023-05-15T22:41:38.318Z,5.82
2023-05-15T22:44:05.160Z,5.65
2023-05-15T22:46:31.831Z,6.05
2023-05-15T22:49:00.504Z,6.20
2023-05-15T22:51:27.270Z,6.15
2023-05-15T22:53:53.858Z,6.13
2023-05-15T22:56:21.462Z,5.88
2023-05-15T22:58:48.243Z,6.05
2023-05-15T23:01:14.884Z,6.10
2023-05-15T23:03:41.665Z,6.50
2023-05-15T23:06:08.289Z,6.43
2023-05-15T23:08:34.958Z,6.80
2023-05-15T23:11:03.998Z,7.57
2023-05-15T23:13:30.676Z,7.03
2023-05-15T23:15:57.301Z,6.80
2023-05-15T23:18:24.024Z,6.85
2023-05-15T23:20:50.727Z,6.57
2023-05-15T23:23:17.419Z,6.68
2023-05-15T23:25:44.043Z,6.40
2023-05-15T23:28:11.009Z,6.38
2023-05-15T23:30:37.657Z,6.80
2023-05-15T23:33:04.346Z,6.70
2023-05-15T23:35:31.471Z,6.32
2023-05-15T23:37:58.147Z,6.63
2023-05-15T23:40:25.124Z,6.22
2023-05-15T23:42:51.988Z,6.53
2023-05-15T23:45:18.825Z,7.10
2023-05-15T23:47:46.731Z,6.68
2023-05-15T23:50:16.269Z,6.50
2023-05-15T23:52:42.853Z,6.40
2023-05-15T23:55:09.914Z,6.97
2023-05-15T23:57:36.490Z,6.35
